createdAt,value
2022-09-18T00:00:42.482Z,77.26
2022-09-18T00:03:14.838Z,77.33
2022-09-18T00:05:46.358Z,77.77
2022-09-18T00:08:17.377Z,77.84
2022-09-18T00:10:52.278Z,77.91
2022-09-18T00:13:23.026Z,78.09
2022-09-18T00:15:59.944Z,78.46
2022-09-18T00:18:31.090Z,78.42
2022-09-18T00:21:15.671Z,79.08
2022-09-18T00:23:47.593Z,79.27
2022-09-18T00:26:20.863Z,79.15
2022-09-18T00:28:51.919Z,79.00
2022-09-18T00:31:28.479Z,78.62
2022-09-18T00:34:01.275Z,79.05
2022-09-18T00:36:33.193Z,79.16
2022-09-18T00:39:05.727Z,79.34
2022-09-18T00:41:42.720Z,79.84
2022-09-18T00:44:38.302Z,79.61
2022-09-18T00:47:15.240Z,79.11
2022-09-18T00:50:11.018Z,79.15
2022-09-18T00:52:57.231Z,79.13
2022-09-18T00:55:38.415Z,79.15
2022-09-18T00:58:09.414Z,79.40
2022-09-18T01:00:40.946Z,79.49
2022-09-18T01:03:12.049Z,80.02
2022-09-18T01:05:42.902Z,79.67
2022-09-18T01:08:41.873Z,80.25
2022-09-18T01:11:42.317Z,79.88
2022-09-18T01:14:31.829Z,80.19
2022-09-18T01:17:39.977Z,80.46
2022-09-18T01:20:40.427Z,80.21
2022-09-18T01:23:22.081Z,80.25
2022-09-18T01:26:04.821Z,80.15
2022-09-18T01:29:01.651Z,80.78
2022-09-18T01:31:37.462Z,80.47
2022-09-18T01:34:27.076Z,80.70
2022-09-18T01:37:06.020Z,80.52
2022-09-18T01:39:57.104Z,80.47
2022-09-18T01:42:31.936Z,80.87
2022-09-18T01:45:08.352Z,80.26
2022-09-18T01:47:51.103Z,80.30
2022-09-18T01:50:24.535Z,79.59
2022-09-18T01:53:24.330Z,79.48
2022-09-18T01:56:16.845Z,79.80
2022-09-18T01:58:49.848Z,79.57
2022-09-18T02:01:25.736Z,79.69
2022-09-18T02:04:04.325Z,80.50
2022-09-18T02:06:41.246Z,80.22
2022-09-18T02:09:14.438Z,80.58
2022-09-18T02:11:49.662Z,80.76
2022-09-18T02:14:31.185Z,80.82
2022-09-18T02:17:42.080Z,80.94
2022-09-18T02:20:22.361Z,80.74
2022-09-18T02:22:59.524Z,80.55
2022-09-18T02:26:00.391Z,80.76
2022-09-18T02:28:34.769Z,80.39
2022-09-18T02:31:06.135Z,80.11
2022-09-18T02:33:39.499Z,79.57
2022-09-18T02:36:25.708Z,79.98
2022-09-18T02:39:12.314Z,79.65
2022-09-18T02:42:07.630Z,79.63
2022-09-18T02:45:15.307Z,79.48
2022-09-18T02:48:11.722Z,79.64
2022-09-18T02:51:04.503Z,79.09
2022-09-18T02:53:52.629Z,78.92
2022-09-18T02:56:35.346Z,78.66
2022-09-18T02:59:25.496Z,77.82
2022-09-18T03:02:01.795Z,77.59
2022-09-18T03:04:35.644Z,77.29
2022-09-18T03:07:08.970Z,76.67
2022-09-18T03:09:49.192Z,76.88
2022-09-18T03:12:20.003Z,77.01
2022-09-18T03:14:52.740Z,77.06
2022-09-18T03:17:23.950Z,76.41
2022-09-18T03:19:55.382Z,76.20
2022-09-18T03:22:26.475Z,75.27
2022-09-18T03:24:57.044Z,74.36
2022-09-18T03:27:28.816Z,74.83
2022-09-18T03:30:00.153Z,75.16
2022-09-18T03:32:35.121Z,75.42
2022-09-18T03:35:09.469Z,75.86
2022-09-18T03:37:40.794Z,74.85
2022-09-18T03:40:14.109Z,73.76
2022-09-18T03:42:48.967Z,73.68
2022-09-18T03:45:20.453Z,73.04
2022-09-18T03:47:51.525Z,72.01
2022-09-18T03:50:23.222Z,71.93
2022-09-18T03:52:54.326Z,71.63
2022-09-18T03:55:43.329Z,70.67
2022-09-18T03:58:32.319Z,70.55
2022-09-18T04:01:10.040Z,70.86
2022-09-18T04:04:00.827Z,69.62
2022-09-18T04:06:50.303Z,70.26
2022-09-18T04:09:41.316Z,70.33
2022-09-18T04:12:12.921Z,70.23
2022-09-18T04:14:46.885Z,70.40
2022-09-18T04:17:18.425Z,69.97
2022-09-18T04:19:53.462Z,68.94
2022-09-18T04:22:25.618Z,69.06
2022-09-18T04:24:56.550Z,69.13
2022-09-18T04:27:27.479Z,69.85
2022-09-18T04:29:58.621Z,69.48
2022-09-18T04:32:29.798Z,69.56
2022-09-18T04:35:00.947Z,70.81
2022-09-18T04:37:32.310Z,72.50
2022-09-18T04:40:05.455Z,73.75
2022-09-18T04:42:37.951Z,73.67
2022-09-18T04:45:11.436Z,74.45
2022-09-18T04:47:43.954Z,74.71
2022-09-18T04:50:14.913Z,74.54
2022-09-18T04:53:05.570Z,74.81
2022-09-18T04:55:37.675Z,75.44
2022-09-18T04:58:08.749Z,75.48
2022-09-18T05:00:41.010Z,75.59
2022-09-18T05:03:11.917Z,75.35
2022-09-18T05:05:45.031Z,75.49
2022-09-18T05:08:16.858Z,75.90
2022-09-18T05:10:48.283Z,76.56
2022-09-18T05:13:21.498Z,76.66
2022-09-18T05:16:02.460Z,77.11
2022-09-18T05:18:34.803Z,77.13
2022-09-18T05:21:08.151Z,76.95
2022-09-18T05:23:40.561Z,77.10
2022-09-18T05:26:14.879Z,77.38
2022-09-18T05:28:45.696Z,77.10
2022-09-18T05:31:16.595Z,76.81
2022-09-18T05:33:49.917Z,77.08
2022-09-18T05:36:20.977Z,77.22
2022-09-18T05:38:54.313Z,76.85
2022-09-18T05:41:26.691Z,77.23
2022-09-18T05:43:57.660Z,77.22
2022-09-18T05:46:28.690Z,77.10
2022-09-18T05:49:04.063Z,77.23
2022-09-18T05:51:34.838Z,77.23
2022-09-18T05:54:05.789Z,76.99
2022-09-18T05:56:46.469Z,76.99
2022-09-18T05:59:17.797Z,77.42
2022-09-18T06:01:51.312Z,77.00
2022-09-18T06:04:30.814Z,77.21
2022-09-18T06:07:04.791Z,77.09
2022-09-18T06:09:35.586Z,77.19
2022-09-18T06:12:06.347Z,76.94
2022-09-18T06:14:40.060Z,76.99
2022-09-18T06:17:10.884Z,76.88
2022-09-18T06:19:41.778Z,77.27
2022-09-18T06:22:13.536Z,77.25
2022-09-18T06:24:45.955Z,77.27
2022-09-18T06:27:22.564Z,77.30
2022-09-18T06:29:53.900Z,77.25
2022-09-18T06:32:35.485Z,77.29
2022-09-18T06:35:07.072Z,77.26
2022-09-18T06:37:38.835Z,77.13
2022-09-18T06:40:21.699Z,76.91
2022-09-18T06:43:10.650Z,76.70
2022-09-18T06:46:07.345Z,76.84
2022-09-18T06:48:43.704Z,76.82
2022-09-18T06:51:15.411Z,77.01
2022-09-18T06:54:07.223Z,76.68
2022-09-18T06:56:38.097Z,77.08
2022-09-18T06:59:12.977Z,77.23
2022-09-18T07:01:44.594Z,77.04
2022-09-18T07:04:23.906Z,77.04
2022-09-18T07:06:54.937Z,76.90
2022-09-18T07:09:25.896Z,77.36
2022-09-18T07:11:56.728Z,76.78
2022-09-18T07:14:36.532Z,76.79
2022-09-18T07:17:19.156Z,76.41
2022-09-18T07:19:52.767Z,76.42
2022-09-18T07:22:27.253Z,76.56
2022-09-18T07:24:58.297Z,76.71
2022-09-18T07:27:29.182Z,76.73
2022-09-18T07:30:00.090Z,76.94
2022-09-18T07:32:31.580Z,76.73
2022-09-18T07:35:03.705Z,76.50
2022-09-18T07:37:36.217Z,76.51
2022-09-18T07:40:33.714Z,76.16
2022-09-18T07:43:12.957Z,76.41
2022-09-18T07:45:53.765Z,76.50
2022-09-18T07:48:27.221Z,76.59
2022-09-18T07:51:01.775Z,77.28
2022-09-18T07:53:35.172Z,77.72
2022-09-18T07:56:10.953Z,77.79
2022-09-18T07:58:42.902Z,77.56
2022-09-18T08:01:18.091Z,78.27
2022-09-18T08:03:53.223Z,78.20
2022-09-18T08:06:39.382Z,78.61
2022-09-18T08:09:16.860Z,78.85
2022-09-18T08:11:56.889Z,79.03
2022-09-18T08:14:42.057Z,79.01
2022-09-18T08:17:48.540Z,79.23
2022-09-18T08:20:33.436Z,79.16
2022-09-18T08:23:33.888Z,79.47
2022-09-18T08:26:07.225Z,79.79
2022-09-18T08:28:38.808Z,79.44
2022-09-18T08:31:10.561Z,79.71
2022-09-18T08:33:43.248Z,79.92
2022-09-18T08:36:14.869Z,80.05
2022-09-18T08:38:58.523Z,79.96
2022-09-18T08:41:53.233Z,79.69
2022-09-18T08:44:30.806Z,79.72
2022-09-18T08:47:13.340Z,79.78
2022-09-18T08:49:56.404Z,79.55
2022-09-18T08:53:23.531Z,78.65
2022-09-18T08:56:31.817Z,78.46
2022-09-18T08:59:46.669Z,78.37
2022-09-18T09:02:40.504Z,77.70
2022-09-18T09:05:37.580Z,77.60
2022-09-18T09:08:45.711Z,77.15
2022-09-18T09:11:49.780Z,76.24
2022-09-18T09:14:56.712Z,75.94
2022-09-18T09:17:55.267Z,76.52
2022-09-18T09:20:53.430Z,75.98
2022-09-18T09:24:00.758Z,76.30
2022-09-18T09:26:55.099Z,76.38
2022-09-18T09:30:20.054Z,76.80
2022-09-18T09:33:33.863Z,76.64
2022-09-18T09:36:19.329Z,76.30
2022-09-18T09:38:56.722Z,76.09
2022-09-18T09:41:58.990Z,76.04
2022-09-18T09:44:41.279Z,76.42
2022-09-18T09:47:49.086Z,76.13
2022-09-18T09:50:36.311Z,76.19
2022-09-18T09:53:14.590Z,76.49
2022-09-18T09:55:59.375Z,76.51
2022-09-18T09:58:48.917Z,76.53
2022-09-18T10:02:00.556Z,77.12
2022-09-18T10:04:50.110Z,77.35
2022-09-18T10:07:47.128Z,78.09
2022-09-18T10:10:50.462Z,77.53
2022-09-18T10:13:26.298Z,77.63
2022-09-18T10:16:13.683Z,77.87
2022-09-18T10:18:53.445Z,77.69
2022-09-18T10:21:29.330Z,77.54
2022-09-18T10:24:18.001Z,77.40
2022-09-18T10:26:55.374Z,77.13
2022-09-18T10:29:26.927Z,76.77
2022-09-18T10:32:05.206Z,77.05
2022-09-18T10:34:51.547Z,76.98
2022-09-18T10:37:31.333Z,77.07
2022-09-18T10:40:10.439Z,76.80
2022-09-18T10:42:42.316Z,77.27
2022-09-18T10:45:32.600Z,76.76
2022-09-18T10:48:27.699Z,76.17
2022-09-18T10:51:07.453Z,76.50
2022-09-18T10:53:45.319Z,76.61
2022-09-18T10:56:24.270Z,76.39
2022-09-18T10:58:58.106Z,76.33
2022-09-18T11:01:29.431Z,76.00
2022-09-18T11:04:05.388Z,75.75
2022-09-18T11:06:47.232Z,75.70
2022-09-18T11:09:36.449Z,75.23
2022-09-18T11:12:08.737Z,75.32
2022-09-18T11:14:49.730Z,75.07
2022-09-18T11:17:42.816Z,74.52
2022-09-18T11:20:43.810Z,74.22
2022-09-18T11:23:32.435Z,74.62
2022-09-18T11:26:23.428Z,74.37
2022-09-18T11:29:24.621Z,73.99
2022-09-18T11:31:57.526Z,74.01
2022-09-18T11:34:36.059Z,73.65
2022-09-18T11:37:16.991Z,73.13
2022-09-18T11:39:58.647Z,72.74
2022-09-18T11:42:30.518Z,73.12
2022-09-18T11:45:56.134Z,72.76
2022-09-18T11:49:04.293Z,72.80
2022-09-18T11:52:04.607Z,72.59
2022-09-18T11:55:03.173Z,73.11
2022-09-18T11:57:41.592Z,72.45
2022-09-18T12:00:25.388Z,72.57
2022-09-18T12:03:18.888Z,72.17
2022-09-18T12:06:01.715Z,72.30
2022-09-18T12:09:00.288Z,72.42
2022-09-18T12:11:58.314Z,72.48
2022-09-18T12:14:39.324Z,72.49
2022-09-18T12:17:44.910Z,72.54
2022-09-18T12:20:32.426Z,72.72
2022-09-18T12:23:06.084Z,72.26
2022-09-18T12:25:51.964Z,72.26
2022-09-18T12:29:18.616Z,72.19
2022-09-18T12:32:07.059Z,72.73
2022-09-18T12:34:52.615Z,72.63
2022-09-18T12:37:48.281Z,72.55
2022-09-18T12:40:38.972Z,72.22
2022-09-18T12:43:28.111Z,72.09
2022-09-18T12:46:07.385Z,71.14
2022-09-18T12:48:59.239Z,70.83
2022-09-18T12:51:32.124Z,70.28
2022-09-18T12:54:23.154Z,71.04
2022-09-18T12:57:25.309Z,71.06
2022-09-18T13:00:15.433Z,71.92
2022-09-18T13:02:51.303Z,72.70
2022-09-18T13:05:33.747Z,73.33
2022-09-18T13:08:31.606Z,73.14
2022-09-18T13:11:16.088Z,73.50
2022-09-18T13:13:55.573Z,72.90
2022-09-18T13:16:50.517Z,72.20
2022-09-18T13:19:24.932Z,71.56
2022-09-18T13:21:56.370Z,71.71
2022-09-18T13:24:32.666Z,71.24
2022-09-18T13:27:08.083Z,71.70
2022-09-18T13:30:00.273Z,71.67
2022-09-18T13:32:37.917Z,71.36
2022-09-18T13:35:17.612Z,71.48
2022-09-18T13:37:49.433Z,71.84
2022-09-18T13:40:33.808Z,72.00
2022-09-18T13:43:30.897Z,72.49
2022-09-18T13:46:11.369Z,72.66
2022-09-18T13:48:51.639Z,72.95
2022-09-18T13:51:31.079Z,72.81
2022-09-18T13:54:23.054Z,72.51
2022-09-18T13:57:17.781Z,72.83
2022-09-18T13:59:58.439Z,72.96
2022-09-18T14:02:36.255Z,73.10
2022-09-18T14:05:33.179Z,73.23
2022-09-18T14:08:21.948Z,73.08
2022-09-18T14:11:13.777Z,72.93
2022-09-18T14:13:45.395Z,72.86
2022-09-18T14:16:16.215Z,73.00
2022-09-18T14:18:47.052Z,72.66
2022-09-18T14:21:20.932Z,72.70
2022-09-18T14:23:52.504Z,72.74
2022-09-18T14:26:37.662Z,72.72
2022-09-18T14:29:20.894Z,72.68
2022-09-18T14:31:57.454Z,72.88
2022-09-18T14:34:33.373Z,72.57
2022-09-18T14:37:28.588Z,72.34
2022-09-18T14:40:01.370Z,72.65
2022-09-18T14:42:38.102Z,72.68
2022-09-18T14:45:24.075Z,72.98
2022-09-18T14:47:55.540Z,73.01
2022-09-18T14:50:40.337Z,73.09
2022-09-18T14:53:32.112Z,73.17
2022-09-18T14:56:11.172Z,73.56
2022-09-18T14:58:46.311Z,73.57
2022-09-18T15:01:27.101Z,73.40
2022-09-18T15:04:00.942Z,73.80
2022-09-18T15:06:40.552Z,73.62
2022-09-18T15:09:13.884Z,73.73
2022-09-18T15:12:01.940Z,73.71
2022-09-18T15:14:46.807Z,73.93
2022-09-18T15:17:24.353Z,74.32
2022-09-18T15:20:19.291Z,74.08
2022-09-18T15:22:51.543Z,74.39
2022-09-18T15:25:35.855Z,74.66
2022-09-18T15:28:09.676Z,74.24
2022-09-18T15:30:41.764Z,74.58
2022-09-18T15:33:23.945Z,74.62
2022-09-18T15:35:56.136Z,74.67
2022-09-18T15:38:34.020Z,74.87
2022-09-18T15:41:44.349Z,75.08
2022-09-18T15:44:38.577Z,74.80
2022-09-18T15:47:33.812Z,75.25
2022-09-18T15:50:26.556Z,75.17
2022-09-18T15:53:00.979Z,75.59
2022-09-18T15:55:54.013Z,75.36
2022-09-18T15:58:43.962Z,75.66
2022-09-18T16:01:21.328Z,75.40
2022-09-18T16:04:06.657Z,75.64
2022-09-18T16:06:52.704Z,75.35
2022-09-18T16:09:34.934Z,75.65
2022-09-18T16:12:30.103Z,75.31
2022-09-18T16:15:22.906Z,75.53
2022-09-18T16:18:07.345Z,75.29
2022-09-18T16:20:52.487Z,75.50
2022-09-18T16:23:37.251Z,75.27
2022-09-18T16:26:18.083Z,75.16
2022-09-18T16:28:50.892Z,75.35
2022-09-18T16:31:27.549Z,75.27
2022-09-18T16:34:07.325Z,75.29
2022-09-18T16:36:44.344Z,75.09
2022-09-18T16:39:17.376Z,75.28
2022-09-18T16:41:49.600Z,75.37
2022-09-18T16:44:21.603Z,75.52
2022-09-18T16:47:04.448Z,75.34
2022-09-18T16:49:41.016Z,75.03
2022-09-18T16:52:13.043Z,75.08
2022-09-18T16:54:43.952Z,75.16
2022-09-18T16:57:21.021Z,74.92
2022-09-18T16:59:54.172Z,75.18
2022-09-18T17:02:26.183Z,75.08
2022-09-18T17:04:57.685Z,74.75
2022-09-18T17:07:28.641Z,75.08
2022-09-18T17:10:00.914Z,74.93
2022-09-18T17:12:31.970Z,74.59
2022-09-18T17:15:02.703Z,74.63
2022-09-18T17:17:33.863Z,74.67
2022-09-18T17:20:05.894Z,74.75
2022-09-18T17:22:37.011Z,74.32
2022-09-18T17:25:08.091Z,74.62
2022-09-18T17:27:43.542Z,74.88
2022-09-18T17:30:15.395Z,74.74
2022-09-18T17:32:46.317Z,74.41
2022-09-18T17:35:18.491Z,74.76
2022-09-18T17:37:49.460Z,74.33
2022-09-18T17:40:22.103Z,74.43
2022-09-18T17:42:53.104Z,74.17
2022-09-18T17:45:23.854Z,74.67
2022-09-18T17:47:57.948Z,74.53
2022-09-18T17:50:28.878Z,74.41
2022-09-18T17:52:59.956Z,74.13
2022-09-18T17:55:31.176Z,74.52
2022-09-18T17:58:02.184Z,74.63
2022-09-18T18:00:33.140Z,74.37
2022-09-18T18:03:04.204Z,74.50
2022-09-18T18:05:35.154Z,74.42
2022-09-18T18:08:06.143Z,74.49
2022-09-18T18:10:39.508Z,74.54
2022-09-18T18:13:10.438Z,74.58
2022-09-18T18:15:41.277Z,74.68
2022-09-18T18:18:12.087Z,74.42
2022-09-18T18:20:43.214Z,74.46
2022-09-18T18:23:14.416Z,74.69
2022-09-18T18:25:45.353Z,74.59
2022-09-18T18:28:16.314Z,74.67
2022-09-18T18:30:50.335Z,74.41
2022-09-18T18:33:21.098Z,74.80
2022-09-18T18:35:52.124Z,74.65
2022-09-18T18:38:23.795Z,74.79
2022-09-18T18:40:54.805Z,74.59
2022-09-18T18:43:26.606Z,74.71
2022-09-18T18:45:59.189Z,74.84
2022-09-18T18:48:29.950Z,74.88
2022-09-18T18:51:02.228Z,74.99
2022-09-18T18:53:33.902Z,74.74
2022-09-18T18:56:10.516Z,74.88
2022-09-18T18:58:41.775Z,75.25
2022-09-18T19:01:15.176Z,75.04
2022-09-18T19:03:53.987Z,75.14
2022-09-18T19:06:29.131Z,75.02
2022-09-18T19:09:04.756Z,74.96
2022-09-18T19:11:37.101Z,74.83
2022-09-18T19:14:08.278Z,75.10
2022-09-18T19:16:38.966Z,75.09
2022-09-18T19:19:12.231Z,74.94
2022-09-18T19:21:43.562Z,74.82
2022-09-18T19:24:15.485Z,75.09
2022-09-18T19:26:46.521Z,75.10
2022-09-18T19:29:19.990Z,75.08
2022-09-18T19:31:51.791Z,75.23
2022-09-18T19:34:24.975Z,75.00
2022-09-18T19:36:56.309Z,75.36
2022-09-18T19:39:27.200Z,75.25
2022-09-18T19:42:04.305Z,75.14
2022-09-18T19:44:43.265Z,75.36
2022-09-18T19:47:29.651Z,75.27
2022-09-18T19:50:02.447Z,75.43
2022-09-18T19:52:33.448Z,75.08
2022-09-18T19:55:04.213Z,75.40
2022-09-18T19:57:35.254Z,75.21
2022-09-18T20:00:08.153Z,75.31
2022-09-18T20:02:42.791Z,75.66
2022-09-18T20:05:13.502Z,75.47
2022-09-18T20:07:44.953Z,75.38
2022-09-18T20:10:17.555Z,75.58
2022-09-18T20:12:48.742Z,75.68
2022-09-18T20:15:19.557Z,75.50
2022-09-18T20:17:50.350Z,75.54
2022-09-18T20:20:21.232Z,75.64
2022-09-18T20:22:56.768Z,75.52
2022-09-18T20:25:28.022Z,75.64
2022-09-18T20:27:58.664Z,75.70
2022-09-18T20:30:29.481Z,76.17
2022-09-18T20:33:00.344Z,76.02
2022-09-18T20:35:31.129Z,76.19
2022-09-18T20:38:05.954Z,75.87
2022-09-18T20:40:37.272Z,75.93
2022-09-18T20:43:09.513Z,76.15
2022-09-18T20:45:40.351Z,76.19
2022-09-18T20:48:11.602Z,76.22
2022-09-18T20:50:42.666Z,75.77
2022-09-18T20:53:13.535Z,76.31
2022-09-18T20:55:44.351Z,75.82
2022-09-18T20:58:17.342Z,76.00
2022-09-18T21:00:49.602Z,75.84
2022-09-18T21:03:22.819Z,76.09
2022-09-18T21:06:07.614Z,76.06
2022-09-18T21:08:47.148Z,75.85
2022-09-18T21:11:30.225Z,76.01
2022-09-18T21:14:04.057Z,76.12
2022-09-18T21:16:37.923Z,75.98
2022-09-18T21:19:09.210Z,76.01
2022-09-18T21:21:40.373Z,76.11
2022-09-18T21:24:12.345Z,76.00
2022-09-18T21:26:48.622Z,75.87
2022-09-18T21:29:23.507Z,76.44
2022-09-18T21:32:02.693Z,76.16
2022-09-18T21:34:36.134Z,76.25
2022-09-18T21:37:10.853Z,76.32
2022-09-18T21:39:42.065Z,76.34
2022-09-18T21:42:13.095Z,76.29
2022-09-18T21:44:43.982Z,76.40
2022-09-18T21:47:15.821Z,76.67
2022-09-18T21:49:46.734Z,76.88
2022-09-18T21:52:17.756Z,76.69
2022-09-18T21:54:50.235Z,76.47
2022-09-18T21:57:21.541Z,76.69
2022-09-18T21:59:52.618Z,76.73
2022-09-18T22:02:24.700Z,76.83
2022-09-18T22:04:56.878Z,76.85
2022-09-18T22:07:27.747Z,76.62
2022-09-18T22:09:58.442Z,77.09
2022-09-18T22:12:29.371Z,77.07
2022-09-18T22:15:00.435Z,76.99
2022-09-18T22:17:31.453Z,77.24
2022-09-18T22:20:02.259Z,77.16
2022-09-18T22:27:52.251Z,77.38
2022-09-18T22:30:23.497Z,77.98
2022-09-18T22:32:54.174Z,77.57
2022-09-18T22:35:24.913Z,77.71
2022-09-18T22:37:56.220Z,77.55
2022-09-18T22:40:26.740Z,77.85
2022-09-18T22:42:58.675Z,77.88
2022-09-18T22:45:29.374Z,77.84
2022-09-18T22:48:00.140Z,77.51
2022-09-18T22:50:31.124Z,77.79
2022-09-18T22:53:01.990Z,77.96
2022-09-18T22:55:34.090Z,78.01
2022-09-18T22:58:09.017Z,77.86
2022-09-18T23:00:39.919Z,77.73
2022-09-18T23:03:10.874Z,78.32
2022-09-18T23:05:42.660Z,77.97
2022-09-18T23:08:14.056Z,78.26
2022-09-18T23:10:45.163Z,78.11
2022-09-18T23:13:16.051Z,77.92
2022-09-18T23:15:46.965Z,77.83
2022-09-18T23:18:18.079Z,77.95
2022-09-18T23:20:49.084Z,78.04
2022-09-18T23:23:19.946Z,77.88
2022-09-18T23:25:50.764Z,78.12
2022-09-18T23:28:21.570Z,77.60
2022-09-18T23:30:52.304Z,77.95
2022-09-18T23:33:22.870Z,77.73
2022-09-18T23:35:54.196Z,77.77
2022-09-18T23:38:24.666Z,77.93
2022-09-18T23:41:04.214Z,77.62
2022-09-18T23:43:35.519Z,77.80
2022-09-18T23:46:06.549Z,77.67
2022-09-18T23:48:37.351Z,77.69
2022-09-18T23:51:08.159Z,77.94
2022-09-18T23:53:39.019Z,77.73
2022-09-18T23:56:15.123Z,77.92
2022-09-18T23:58:47.579Z,77.98
